sensor_id;sensor_type;location;lat;lon;timestamp;temperature;humidity
18091;DHT22;9172;49.948;9.208;2023-08-31T00:00:10;14.10;99.90
18091;DHT22;9172;49.948;9.208;2023-08-31T00:02:40;14.10;99.90
18091;DHT22;9172;49.948;9.208;2023-08-31T00:05:10;14.10;99.90
18091;DHT22;9172;49.948;9.208;2023-08-31T00:07:39;14.10;99.90
18091;DHT22;9172;49.948;9.208;2023-08-31T00:10:09;14.10;99.90
18091;DHT22;9172;49.948;9.208;2023-08-31T00:12:39;14.10;99.90
18091;DHT22;9172;49.948;9.208;2023-08-31T00:15:09;14.10;99.90
18091;DHT22;9172;49.948;9.208;2023-08-31T00:17:38;14.10;99.90
18091;DHT22;9172;49.948;9.208;2023-08-31T00:20:09;14.10;99.90
18091;DHT22;9172;49.948;9.208;2023-08-31T00:22:40;14.00;99.90
18091;DHT22;9172;49.948;9.208;2023-08-31T00:25:10;14.10;99.90
18091;DHT22;9172;49.948;9.208;2023-08-31T00:27:39;14.10;99.90
18091;DHT22;9172;49.948;9.208;2023-08-31T00:30:12;14.10;99.90
18091;DHT22;9172;49.948;9.208;2023-08-31T00:32:42;14.00;99.90
18091;DHT22;9172;49.948;9.208;2023-08-31T00:35:10;14.00;99.90
18091;DHT22;9172;49.948;9.208;2023-08-31T00:37:39;14.10;99.90
18091;DHT22;9172;49.948;9.208;2023-08-31T00:40:10;14.00;99.90
18091;DHT22;9172;49.948;9.208;2023-08-31T00:42:41;14.00;99.90
18091;DHT22;9172;49.948;9.208;2023-08-31T00:45:11;14.00;99.90
18091;DHT22;9172;49.948;9.208;2023-08-31T00:47:41;14.00;99.90
18091;DHT22;9172;49.948;9.208;2023-08-31T00:50:10;14.00;99.90
18091;DHT22;9172;49.948;9.208;2023-08-31T00:52:39;14.00;99.90
18091;DHT22;9172;49.948;9.208;2023-08-31T00:55:11;14.00;99.90
18091;DHT22;9172;49.948;9.208;2023-08-31T00:57:40;14.00;99.90
18091;DHT22;9172;49.948;9.208;2023-08-31T01:00:13;14.00;99.90
18091;DHT22;9172;49.948;9.208;2023-08-31T01:02:46;14.00;99.90
18091;DHT22;9172;49.948;9.208;2023-08-31T01:05:20;14.00;99.90
18091;DHT22;9172;49.948;9.208;2023-08-31T01:07:53;14.00;99.90
18091;DHT22;9172;49.948;9.208;2023-08-31T01:10:25;14.00;99.90
18091;DHT22;9172;49.948;9.208;2023-08-31T01:12:58;14.00;99.90
18091;DHT22;9172;49.948;9.208;2023-08-31T01:15:27;14.00;99.90
18091;DHT22;9172;49.948;9.208;2023-08-31T01:18:00;13.90;99.90
18091;DHT22;9172;49.948;9.208;2023-08-31T01:20:32;13.90;99.90
18091;DHT22;9172;49.948;9.208;2023-08-31T01:23:04;13.90;99.90
18091;DHT22;9172;49.948;9.208;2023-08-31T01:25:34;13.90;99.90
18091;DHT22;9172;49.948;9.208;2023-08-31T01:28:07;13.90;99.90
18091;DHT22;9172;49.948;9.208;2023-08-31T01:30:38;13.90;99.90
18091;DHT22;9172;49.948;9.208;2023-08-31T01:33:08;13.80;99.90
18091;DHT22;9172;49.948;9.208;2023-08-31T01:35:40;13.80;99.90
18091;DHT22;9172;49.948;9.208;2023-08-31T01:38:10;13.80;99.90
18091;DHT22;9172;49.948;9.208;2023-08-31T01:40:43;13.80;99.90
18091;DHT22;9172;49.948;9.208;2023-08-31T01:43:12;13.80;99.90
18091;DHT22;9172;49.948;9.208;2023-08-31T01:45:42;13.70;99.90
18091;DHT22;9172;49.948;9.208;2023-08-31T01:48:12;13.70;99.90
18091;DHT22;9172;49.948;9.208;2023-08-31T01:50:41;13.60;99.90
18091;DHT22;9172;49.948;9.208;2023-08-31T01:53:11;13.60;99.90
18091;DHT22;9172;49.948;9.208;2023-08-31T01:55:40;13.60;99.90
18091;DHT22;9172;49.948;9.208;2023-08-31T01:58:08;13.60;99.90
18091;DHT22;9172;49.948;9.208;2023-08-31T02:00:37;13.60;99.90
18091;DHT22;9172;49.948;9.208;2023-08-31T02:03:06;13.60;99.90
18091;DHT22;9172;49.948;9.208;2023-08-31T02:05:35;13.60;99.90
18091;DHT22;9172;49.948;9.208;2023-08-31T02:08:04;13.50;99.90
18091;DHT22;9172;49.948;9.208;2023-08-31T02:10:33;13.50;99.90
18091;DHT22;9172;49.948;9.208;2023-08-31T02:13:01;13.50;99.90
18091;DHT22;9172;49.948;9.208;2023-08-31T02:15:30;13.40;99.90
18091;DHT22;9172;49.948;9.208;2023-08-31T02:18:00;13.40;99.90
18091;DHT22;9172;49.948;9.208;2023-08-31T02:20:29;13.40;99.90
18091;DHT22;9172;49.948;9.208;2023-08-31T02:22:58;13.40;99.90
18091;DHT22;9172;49.948;9.208;2023-08-31T02:25:27;13.40;99.90
18091;DHT22;9172;49.948;9.208;2023-08-31T02:27:56;13.40;99.90
18091;DHT22;9172;49.948;9.208;2023-08-31T02:30:24;13.30;99.90
18091;DHT22;9172;49.948;9.208;2023-08-31T02:32:53;13.30;99.90
18091;DHT22;9172;49.948;9.208;2023-08-31T02:35:23;13.30;99.90
18091;DHT22;9172;49.948;9.208;2023-08-31T02:37:51;13.20;99.90
18091;DHT22;9172;49.948;9.208;2023-08-31T02:40:20;13.10;99.90
18091;DHT22;9172;49.948;9.208;2023-08-31T02:42:51;13.10;99.90
18091;DHT22;9172;49.948;9.208;2023-08-31T02:45:20;13.20;99.90
18091;DHT22;9172;49.948;9.208;2023-08-31T02:47:50;13.20;99.90
18091;DHT22;9172;49.948;9.208;2023-08-31T02:50:20;13.20;99.90
18091;DHT22;9172;49.948;9.208;2023-08-31T02:52:48;13.20;99.90
18091;DHT22;9172;49.948;9.208;2023-08-31T02:55:18;13.20;99.90
18091;DHT22;9172;49.948;9.208;2023-08-31T02:57:47;13.20;99.90
18091;DHT22;9172;49.948;9.208;2023-08-31T03:00:17;13.20;99.90
18091;DHT22;9172;49.948;9.208;2023-08-31T03:02:48;13.20;99.90
18091;DHT22;9172;49.948;9.208;2023-08-31T03:05:17;13.20;99.90
18091;DHT22;9172;49.948;9.208;2023-08-31T03:07:48;13.20;99.90
18091;DHT22;9172;49.948;9.208;2023-08-31T03:10:17;13.20;99.90
18091;DHT22;9172;49.948;9.208;2023-08-31T03:12:45;13.10;99.90
18091;DHT22;9172;49.948;9.208;2023-08-31T03:15:16;13.10;99.90
18091;DHT22;9172;49.948;9.208;2023-08-31T03:17:45;13.10;99.90
18091;DHT22;9172;49.948;9.208;2023-08-31T03:22:55;13.00;99.90
18091;DHT22;9172;49.948;9.208;2023-08-31T03:25:24;13.00;99.90
18091;DHT22;9172;49.948;9.208;2023-08-31T03:27:52;13.00;99.90
18091;DHT22;9172;49.948;9.208;2023-08-31T03:30:22;13.00;99.90
18091;DHT22;9172;49.948;9.208;2023-08-31T03:32:51;13.10;99.90
18091;DHT22;9172;49.948;9.208;2023-08-31T03:35:19;13.10;99.90
18091;DHT22;9172;49.948;9.208;2023-08-31T03:37:50;13.10;99.90
18091;DHT22;9172;49.948;9.208;2023-08-31T03:40:18;13.10;99.90
18091;DHT22;9172;49.948;9.208;2023-08-31T03:42:48;13.10;99.90
18091;DHT22;9172;49.948;9.208;2023-08-31T03:45:19;13.20;99.90
18091;DHT22;9172;49.948;9.208;2023-08-31T03:47:48;13.10;99.90
18091;DHT22;9172;49.948;9.208;2023-08-31T03:50:17;13.10;99.90
18091;DHT22;9172;49.948;9.208;2023-08-31T03:52:47;13.10;99.90
18091;DHT22;9172;49.948;9.208;2023-08-31T03:55:16;13.10;99.90
18091;DHT22;9172;49.948;9.208;2023-08-31T03:57:46;13.10;99.90
18091;DHT22;9172;49.948;9.208;2023-08-31T04:00:16;13.20;99.90
18091;DHT22;9172;49.948;9.208;2023-08-31T04:02:46;13.10;99.90
18091;DHT22;9172;49.948;9.208;2023-08-31T04:05:14;13.10;99.90
18091;DHT22;9172;49.948;9.208;2023-08-31T04:07:43;13.10;99.90
18091;DHT22;9172;49.948;9.208;2023-08-31T04:10:12;13.10;99.90
18091;DHT22;9172;49.948;9.208;2023-08-31T04:12:43;13.20;99.90
18091;DHT22;9172;49.948;9.208;2023-08-31T04:17:50;13.20;99.90
18091;DHT22;9172;49.948;9.208;2023-08-31T04:20:20;13.20;99.90
18091;DHT22;9172;49.948;9.208;2023-08-31T04:22:49;13.20;99.90
18091;DHT22;9172;49.948;9.208;2023-08-31T04:25:18;13.10;99.90
18091;DHT22;9172;49.948;9.208;2023-08-31T04:27:47;13.20;99.90
18091;DHT22;9172;49.948;9.208;2023-08-31T04:30:16;13.20;99.90
18091;DHT22;9172;49.948;9.208;2023-08-31T04:32:45;13.20;99.90
18091;DHT22;9172;49.948;9.208;2023-08-31T04:35:15;13.20;99.90
18091;DHT22;9172;49.948;9.208;2023-08-31T04:37:45;13.10;99.90
18091;DHT22;9172;49.948;9.208;2023-08-31T04:42:51;13.10;99.90
18091;DHT22;9172;49.948;9.208;2023-08-31T04:47:57;13.10;99.90
18091;DHT22;9172;49.948;9.208;2023-08-31T04:50:26;13.00;99.90
18091;DHT22;9172;49.948;9.208;2023-08-31T04:52:56;13.00;99.90
18091;DHT22;9172;49.948;9.208;2023-08-31T04:55:26;13.00;99.90
18091;DHT22;9172;49.948;9.208;2023-08-31T04:57:56;13.00;99.90
18091;DHT22;9172;49.948;9.208;2023-08-31T05:03:03;13.00;99.90
18091;DHT22;9172;49.948;9.208;2023-08-31T05:05:32;13.00;99.90
18091;DHT22;9172;49.948;9.208;2023-08-31T05:08:03;13.00;99.90
18091;DHT22;9172;49.948;9.208;2023-08-31T05:10:32;13.00;99.90
18091;DHT22;9172;49.948;9.208;2023-08-31T05:13:01;13.00;99.90
18091;DHT22;9172;49.948;9.208;2023-08-31T05:15:31;13.00;99.90
18091;DHT22;9172;49.948;9.208;2023-08-31T05:18:01;13.00;99.90
18091;DHT22;9172;49.948;9.208;2023-08-31T05:23:06;13.00;99.90
18091;DHT22;9172;49.948;9.208;2023-08-31T05:25:36;13.10;99.90
18091;DHT22;9172;49.948;9.208;2023-08-31T05:28:05;13.10;99.90
18091;DHT22;9172;49.948;9.208;2023-08-31T05:30:35;13.00;99.90
18091;DHT22;9172;49.948;9.208;2023-08-31T05:33:04;13.10;99.90
18091;DHT22;9172;49.948;9.208;2023-08-31T05:35:36;13.10;99.90
18091;DHT22;9172;49.948;9.208;2023-08-31T05:38:05;13.00;99.90
18091;DHT22;9172;49.948;9.208;2023-08-31T05:40:34;13.00;99.90
18091;DHT22;9172;49.948;9.208;2023-08-31T05:43:04;13.10;99.90
18091;DHT22;9172;49.948;9.208;2023-08-31T05:45:33;13.00;99.90
18091;DHT22;9172;49.948;9.208;2023-08-31T05:48:02;13.10;99.90
18091;DHT22;9172;49.948;9.208;2023-08-31T05:53:10;13.10;99.90
18091;DHT22;9172;49.948;9.208;2023-08-31T05:55:40;13.10;99.90
18091;DHT22;9172;49.948;9.208;2023-08-31T05:58:09;13.10;99.90
18091;DHT22;9172;49.948;9.208;2023-08-31T06:00:37;13.10;99.90
18091;DHT22;9172;49.948;9.208;2023-08-31T06:03:07;13.20;99.90
18091;DHT22;9172;49.948;9.208;2023-08-31T06:05:36;13.20;99.90
18091;DHT22;9172;49.948;9.208;2023-08-31T06:08:06;13.20;99.90
18091;DHT22;9172;49.948;9.208;2023-08-31T06:10:34;13.20;99.90
18091;DHT22;9172;49.948;9.208;2023-08-31T06:13:03;13.30;99.90
18091;DHT22;9172;49.948;9.208;2023-08-31T06:18:10;13.30;99.90
18091;DHT22;9172;49.948;9.208;2023-08-31T06:20:40;13.30;99.90
18091;DHT22;9172;49.948;9.208;2023-08-31T06:23:10;13.40;99.90
18091;DHT22;9172;49.948;9.208;2023-08-31T06:25:38;13.50;99.90
18091;DHT22;9172;49.948;9.208;2023-08-31T06:28:08;13.50;99.90
18091;DHT22;9172;49.948;9.208;2023-08-31T06:30:40;13.50;99.90
18091;DHT22;9172;49.948;9.208;2023-08-31T06:33:11;13.60;99.90
18091;DHT22;9172;49.948;9.208;2023-08-31T06:35:40;13.60;99.90
18091;DHT22;9172;49.948;9.208;2023-08-31T06:38:09;13.60;99.90
18091;DHT22;9172;49.948;9.208;2023-08-31T06:40:39;13.70;99.90
18091;DHT22;9172;49.948;9.208;2023-08-31T06:43:10;13.80;99.90
18091;DHT22;9172;49.948;9.208;2023-08-31T06:45:39;13.90;99.90
18091;DHT22;9172;49.948;9.208;2023-08-31T06:48:08;13.90;99.90
18091;DHT22;9172;49.948;9.208;2023-08-31T06:50:36;14.00;99.90
18091;DHT22;9172;49.948;9.208;2023-08-31T06:53:05;14.00;99.90
18091;DHT22;9172;49.948;9.208;2023-08-31T06:55:34;14.10;99.90
18091;DHT22;9172;49.948;9.208;2023-08-31T06:58:03;14.30;99.90
18091;DHT22;9172;49.948;9.208;2023-08-31T07:00:32;14.20;99.90
18091;DHT22;9172;49.948;9.208;2023-08-31T07:03:03;14.20;99.90
18091;DHT22;9172;49.948;9.208;2023-08-31T07:05:41;14.30;99.90
18091;DHT22;9172;49.948;9.208;2023-08-31T07:08:05;14.30;99.90
18091;DHT22;9172;49.948;9.208;2023-08-31T07:10:34;14.50;99.90
18091;DHT22;9172;49.948;9.208;2023-08-31T07:13:04;14.60;99.90
18091;DHT22;9172;49.948;9.208;2023-08-31T07:15:35;14.80;99.90
18091;DHT22;9172;49.948;9.208;2023-08-31T07:18:05;14.80;99.90
18091;DHT22;9172;49.948;9.208;2023-08-31T07:20:33;14.80;99.90
18091;DHT22;9172;49.948;9.208;2023-08-31T07:23:02;14.80;99.90
18091;DHT22;9172;49.948;9.208;2023-08-31T07:25:31;14.80;99.90
18091;DHT22;9172;49.948;9.208;2023-08-31T07:28:00;14.80;99.90
18091;DHT22;9172;49.948;9.208;2023-08-31T07:30:31;14.80;99.90
18091;DHT22;9172;49.948;9.208;2023-08-31T07:33:00;14.80;99.90
18091;DHT22;9172;49.948;9.208;2023-08-31T07:35:31;14.80;99.90
18091;DHT22;9172;49.948;9.208;2023-08-31T07:38:00;14.70;99.90
18091;DHT22;9172;49.948;9.208;2023-08-31T07:40:29;14.70;99.90
18091;DHT22;9172;49.948;9.208;2023-08-31T07:42:58;14.70;99.90
18091;DHT22;9172;49.948;9.208;2023-08-31T07:45:26;14.70;99.90
18091;DHT22;9172;49.948;9.208;2023-08-31T07:47:56;14.60;99.90
18091;DHT22;9172;49.948;9.208;2023-08-31T07:50:25;14.60;99.90
18091;DHT22;9172;49.948;9.208;2023-08-31T07:52:54;14.70;99.90
18091;DHT22;9172;49.948;9.208;2023-08-31T07:55:23;14.70;99.90
18091;DHT22;9172;49.948;9.208;2023-08-31T07:57:51;14.70;99.90
18091;DHT22;9172;49.948;9.208;2023-08-31T08:00:20;14.70;99.90
18091;DHT22;9172;49.948;9.208;2023-08-31T08:02:49;14.60;99.90
18091;DHT22;9172;49.948;9.208;2023-08-31T08:05:18;14.60;99.90
18091;DHT22;9172;49.948;9.208;2023-08-31T08:07:48;14.60;99.90
18091;DHT22;9172;49.948;9.208;2023-08-31T08:10:17;14.60;99.90
18091;DHT22;9172;49.948;9.208;2023-08-31T08:12:46;14.70;99.90
18091;DHT22;9172;49.948;9.208;2023-08-31T08:15:15;14.70;99.90
18091;DHT22;9172;49.948;9.208;2023-08-31T08:17:43;14.70;99.90
18091;DHT22;9172;49.948;9.208;2023-08-31T08:20:13;14.80;99.90
18091;DHT22;9172;49.948;9.208;2023-08-31T08:22:42;14.70;99.90
18091;DHT22;9172;49.948;9.208;2023-08-31T08:25:12;14.70;99.90
18091;DHT22;9172;49.948;9.208;2023-08-31T08:27:41;14.70;99.90
18091;DHT22;9172;49.948;9.208;2023-08-31T08:30:10;14.70;99.90
18091;DHT22;9172;49.948;9.208;2023-08-31T08:32:39;14.70;99.90
18091;DHT22;9172;49.948;9.208;2023-08-31T08:35:08;14.70;99.90
18091;DHT22;9172;49.948;9.208;2023-08-31T08:37:38;14.70;99.90
18091;DHT22;9172;49.948;9.208;2023-08-31T08:40:09;14.70;99.90
18091;DHT22;9172;49.948;9.208;2023-08-31T08:42:41;14.70;99.90
18091;DHT22;9172;49.948;9.208;2023-08-31T08:45:12;14.80;99.90
18091;DHT22;9172;49.948;9.208;2023-08-31T08:47:43;14.80;99.90
18091;DHT22;9172;49.948;9.208;2023-08-31T08:50:13;14.80;99.90
18091;DHT22;9172;49.948;9.208;2023-08-31T08:52:42;14.90;99.90
18091;DHT22;9172;49.948;9.208;2023-08-31T08:55:12;14.90;99.90
18091;DHT22;9172;49.948;9.208;2023-08-31T08:57:43;14.90;99.90
18091;DHT22;9172;49.948;9.208;2023-08-31T09:00:15;14.90;99.90
18091;DHT22;9172;49.948;9.208;2023-08-31T09:02:44;14.90;99.90
18091;DHT22;9172;49.948;9.208;2023-08-31T09:05:13;14.80;99.90
18091;DHT22;9172;49.948;9.208;2023-08-31T09:08:00;14.80;99.90
18091;DHT22;9172;49.948;9.208;2023-08-31T09:10:35;14.80;99.90
18091;DHT22;9172;49.948;9.208;2023-08-31T09:13:06;14.80;99.90
18091;DHT22;9172;49.948;9.208;2023-08-31T09:15:44;14.90;99.90
18091;DHT22;9172;49.948;9.208;2023-08-31T09:18:22;15.00;99.90
18091;DHT22;9172;49.948;9.208;2023-08-31T09:20:53;15.10;99.90
18091;DHT22;9172;49.948;9.208;2023-08-31T09:23:24;15.10;99.90
18091;DHT22;9172;49.948;9.208;2023-08-31T09:25:55;15.10;99.90
18091;DHT22;9172;49.948;9.208;2023-08-31T09:28:26;15.10;99.90
18091;DHT22;9172;49.948;9.208;2023-08-31T09:31:04;15.20;99.90
18091;DHT22;9172;49.948;9.208;2023-08-31T09:33:32;15.20;99.90
18091;DHT22;9172;49.948;9.208;2023-08-31T09:36:03;15.20;99.90
18091;DHT22;9172;49.948;9.208;2023-08-31T09:38:31;15.20;99.90
18091;DHT22;9172;49.948;9.208;2023-08-31T09:41:05;15.30;99.90
18091;DHT22;9172;49.948;9.208;2023-08-31T09:43:35;15.30;99.90
18091;DHT22;9172;49.948;9.208;2023-08-31T09:46:05;15.30;99.90
18091;DHT22;9172;49.948;9.208;2023-08-31T09:48:35;15.40;99.90
18091;DHT22;9172;49.948;9.208;2023-08-31T09:51:07;15.40;99.90
18091;DHT22;9172;49.948;9.208;2023-08-31T09:53:37;15.50;99.90
18091;DHT22;9172;49.948;9.208;2023-08-31T09:56:06;15.50;99.90
18091;DHT22;9172;49.948;9.208;2023-08-31T09:58:35;15.60;99.90
18091;DHT22;9172;49.948;9.208;2023-08-31T10:01:04;15.60;99.90
18091;DHT22;9172;49.948;9.208;2023-08-31T10:03:34;15.60;99.90
18091;DHT22;9172;49.948;9.208;2023-08-31T10:06:03;15.60;99.90
18091;DHT22;9172;49.948;9.208;2023-08-31T10:08:33;15.70;99.90
18091;DHT22;9172;49.948;9.208;2023-08-31T10:11:04;15.70;99.90
18091;DHT22;9172;49.948;9.208;2023-08-31T10:13:34;15.70;99.90
18091;DHT22;9172;49.948;9.208;2023-08-31T10:16:05;15.90;99.90
18091;DHT22;9172;49.948;9.208;2023-08-31T10:18:35;16.00;99.90
18091;DHT22;9172;49.948;9.208;2023-08-31T10:21:06;16.10;99.90
18091;DHT22;9172;49.948;9.208;2023-08-31T10:23:36;16.10;99.90
18091;DHT22;9172;49.948;9.208;2023-08-31T10:26:04;16.10;99.90
18091;DHT22;9172;49.948;9.208;2023-08-31T10:28:40;16.20;99.90
18091;DHT22;9172;49.948;9.208;2023-08-31T10:31:10;16.20;99.90
18091;DHT22;9172;49.948;9.208;2023-08-31T10:33:41;16.20;99.90
18091;DHT22;9172;49.948;9.208;2023-08-31T10:36:12;16.20;99.90
18091;DHT22;9172;49.948;9.208;2023-08-31T10:38:44;16.20;99.90
18091;DHT22;9172;49.948;9.208;2023-08-31T10:41:22;16.20;99.90
18091;DHT22;9172;49.948;9.208;2023-08-31T10:43:53;16.20;99.90
18091;DHT22;9172;49.948;9.208;2023-08-31T10:46:28;16.20;99.90
18091;DHT22;9172;49.948;9.208;2023-08-31T10:48:58;16.30;99.90
18091;DHT22;9172;49.948;9.208;2023-08-31T10:51:28;16.30;99.90
18091;DHT22;9172;49.948;9.208;2023-08-31T10:54:08;16.30;99.90
18091;DHT22;9172;49.948;9.208;2023-08-31T10:59:45;16.50;99.90
18091;DHT22;9172;49.948;9.208;2023-08-31T11:02:34;16.60;99.90
18091;DHT22;9172;49.948;9.208;2023-08-31T11:05:09;16.70;99.90
18091;DHT22;9172;49.948;9.208;2023-08-31T11:07:39;16.70;99.90
18091;DHT22;9172;49.948;9.208;2023-08-31T11:10:16;16.90;99.90
18091;DHT22;9172;49.948;9.208;2023-08-31T11:12:47;17.00;99.90
18091;DHT22;9172;49.948;9.208;2023-08-31T11:15:17;17.10;99.90
18091;DHT22;9172;49.948;9.208;2023-08-31T11:17:46;17.10;99.90
18091;DHT22;9172;49.948;9.208;2023-08-31T11:20:16;17.20;99.90
18091;DHT22;9172;49.948;9.208;2023-08-31T11:22:47;17.20;99.90
18091;DHT22;9172;49.948;9.208;2023-08-31T11:25:18;17.20;99.90
18091;DHT22;9172;49.948;9.208;2023-08-31T11:27:55;17.30;99.90
18091;DHT22;9172;49.948;9.208;2023-08-31T11:30:25;17.30;99.90
18091;DHT22;9172;49.948;9.208;2023-08-31T11:32:54;17.40;99.90
18091;DHT22;9172;49.948;9.208;2023-08-31T11:35:24;17.50;99.90
18091;DHT22;9172;49.948;9.208;2023-08-31T11:37:56;17.60;99.90
18091;DHT22;9172;49.948;9.208;2023-08-31T11:40:26;17.50;99.90
18091;DHT22;9172;49.948;9.208;2023-08-31T11:42:56;17.50;99.90
18091;DHT22;9172;49.948;9.208;2023-08-31T11:45:28;17.50;99.90
18091;DHT22;9172;49.948;9.208;2023-08-31T11:47:58;17.50;99.90
18091;DHT22;9172;49.948;9.208;2023-08-31T11:50:28;17.40;99.90
18091;DHT22;9172;49.948;9.208;2023-08-31T11:52:58;17.30;99.90
18091;DHT22;9172;49.948;9.208;2023-08-31T11:55:29;17.30;99.90
18091;DHT22;9172;49.948;9.208;2023-08-31T11:57:58;17.30;99.90
18091;DHT22;9172;49.948;9.208;2023-08-31T12:00:27;17.30;99.90
18091;DHT22;9172;49.948;9.208;2023-08-31T12:02:57;17.40;99.90
18091;DHT22;9172;49.948;9.208;2023-08-31T12:08:04;17.50;99.90
18091;DHT22;9172;49.948;9.208;2023-08-31T12:10:33;17.60;99.90
18091;DHT22;9172;49.948;9.208;2023-08-31T12:13:10;17.60;99.90
18091;DHT22;9172;49.948;9.208;2023-08-31T12:15:38;17.70;99.90
18091;DHT22;9172;49.948;9.208;2023-08-31T12:18:10;17.80;99.90
18091;DHT22;9172;49.948;9.208;2023-08-31T12:20:47;17.70;99.90
18091;DHT22;9172;49.948;9.208;2023-08-31T12:23:18;17.70;99.90
18091;DHT22;9172;49.948;9.208;2023-08-31T12:25:50;17.80;99.90
18091;DHT22;9172;49.948;9.208;2023-08-31T12:28:19;17.90;99.90
18091;DHT22;9172;49.948;9.208;2023-08-31T12:30:51;17.90;99.90
18091;DHT22;9172;49.948;9.208;2023-08-31T12:33:21;18.00;99.90
18091;DHT22;9172;49.948;9.208;2023-08-31T12:35:50;18.10;99.90
18091;DHT22;9172;49.948;9.208;2023-08-31T12:38:19;18.20;99.90
18091;DHT22;9172;49.948;9.208;2023-08-31T12:40:48;18.40;99.90
18091;DHT22;9172;49.948;9.208;2023-08-31T12:43:16;18.50;99.90
18091;DHT22;9172;49.948;9.208;2023-08-31T12:45:45;18.50;99.90
18091;DHT22;9172;49.948;9.208;2023-08-31T12:48:13;18.60;99.90
18091;DHT22;9172;49.948;9.208;2023-08-31T12:50:43;18.60;99.90
18091;DHT22;9172;49.948;9.208;2023-08-31T12:53:12;18.60;99.90
18091;DHT22;9172;49.948;9.208;2023-08-31T12:55:42;18.60;99.90
18091;DHT22;9172;49.948;9.208;2023-08-31T12:58:12;18.60;99.90
18091;DHT22;9172;49.948;9.208;2023-08-31T13:00:41;18.70;99.90
18091;DHT22;9172;49.948;9.208;2023-08-31T13:03:10;18.80;99.90
18091;DHT22;9172;49.948;9.208;2023-08-31T13:05:40;18.90;99.90
18091;DHT22;9172;49.948;9.208;2023-08-31T13:08:10;18.90;99.90
18091;DHT22;9172;49.948;9.208;2023-08-31T13:10:40;18.90;99.90
18091;DHT22;9172;49.948;9.208;2023-08-31T13:13:08;18.90;99.90
18091;DHT22;9172;49.948;9.208;2023-08-31T13:15:37;19.00;99.90
18091;DHT22;9172;49.948;9.208;2023-08-31T13:18:06;18.90;99.90
18091;DHT22;9172;49.948;9.208;2023-08-31T13:20:34;19.00;99.90
18091;DHT22;9172;49.948;9.208;2023-08-31T13:23:03;19.10;99.90
18091;DHT22;9172;49.948;9.208;2023-08-31T13:25:33;19.00;99.90
18091;DHT22;9172;49.948;9.208;2023-08-31T13:28:03;19.00;99.90
18091;DHT22;9172;49.948;9.208;2023-08-31T13:30:32;19.00;99.90
18091;DHT22;9172;49.948;9.208;2023-08-31T13:33:02;19.00;99.90
18091;DHT22;9172;49.948;9.208;2023-08-31T13:35:32;19.10;99.90
18091;DHT22;9172;49.948;9.208;2023-08-31T13:38:02;19.20;99.90
18091;DHT22;9172;49.948;9.208;2023-08-31T13:40:33;19.20;99.90
18091;DHT22;9172;49.948;9.208;2023-08-31T13:43:01;19.20;99.90
18091;DHT22;9172;49.948;9.208;2023-08-31T13:45:31;19.10;99.90
18091;DHT22;9172;49.948;9.208;2023-08-31T13:48:00;19.10;99.90
18091;DHT22;9172;49.948;9.208;2023-08-31T13:50:31;19.20;99.90
18091;DHT22;9172;49.948;9.208;2023-08-31T13:53:00;19.20;99.90
18091;DHT22;9172;49.948;9.208;2023-08-31T13:55:29;19.20;99.90
18091;DHT22;9172;49.948;9.208;2023-08-31T13:58:06;19.10;99.90
18091;DHT22;9172;49.948;9.208;2023-08-31T14:00:36;19.10;99.90
18091;DHT22;9172;49.948;9.208;2023-08-31T14:03:05;19.10;99.90
18091;DHT22;9172;49.948;9.208;2023-08-31T14:05:34;19.10;99.90
18091;DHT22;9172;49.948;9.208;2023-08-31T14:08:03;19.10;99.90
18091;DHT22;9172;49.948;9.208;2023-08-31T14:10:32;19.00;99.90
18091;DHT22;9172;49.948;9.208;2023-08-31T14:13:01;18.90;99.90
18091;DHT22;9172;49.948;9.208;2023-08-31T14:15:30;19.00;99.90
18091;DHT22;9172;49.948;9.208;2023-08-31T14:17:59;19.00;99.90
18091;DHT22;9172;49.948;9.208;2023-08-31T14:20:29;19.10;99.90
18091;DHT22;9172;49.948;9.208;2023-08-31T14:22:58;19.00;99.90
18091;DHT22;9172;49.948;9.208;2023-08-31T14:25:26;19.00;99.90
18091;DHT22;9172;49.948;9.208;2023-08-31T14:27:56;19.00;99.90
18091;DHT22;9172;49.948;9.208;2023-08-31T14:30:24;19.00;99.90
18091;DHT22;9172;49.948;9.208;2023-08-31T14:32:54;19.00;99.90
18091;DHT22;9172;49.948;9.208;2023-08-31T14:35:22;19.00;99.90
18091;DHT22;9172;49.948;9.208;2023-08-31T14:37:53;18.90;99.90
18091;DHT22;9172;49.948;9.208;2023-08-31T14:40:22;18.90;99.90
18091;DHT22;9172;49.948;9.208;2023-08-31T14:42:52;18.90;99.90
18091;DHT22;9172;49.948;9.208;2023-08-31T14:45:21;18.90;99.90
18091;DHT22;9172;49.948;9.208;2023-08-31T14:47:51;19.00;99.90
18091;DHT22;9172;49.948;9.208;2023-08-31T14:50:20;19.00;99.90
18091;DHT22;9172;49.948;9.208;2023-08-31T14:52:49;19.00;99.90
18091;DHT22;9172;49.948;9.208;2023-08-31T14:55:17;19.10;99.90
18091;DHT22;9172;49.948;9.208;2023-08-31T14:57:47;19.10;99.90
18091;DHT22;9172;49.948;9.208;2023-08-31T15:00:17;19.00;99.90
18091;DHT22;9172;49.948;9.208;2023-08-31T15:02:48;18.90;99.90
18091;DHT22;9172;49.948;9.208;2023-08-31T15:05:17;18.90;99.90
18091;DHT22;9172;49.948;9.208;2023-08-31T15:10:22;18.90;99.90
18091;DHT22;9172;49.948;9.208;2023-08-31T15:12:51;18.80;99.90
18091;DHT22;9172;49.948;9.208;2023-08-31T15:17:58;18.70;99.90
18091;DHT22;9172;49.948;9.208;2023-08-31T15:20:26;18.70;99.90
18091;DHT22;9172;49.948;9.208;2023-08-31T15:22:56;18.70;99.90
18091;DHT22;9172;49.948;9.208;2023-08-31T15:25:24;18.80;99.90
18091;DHT22;9172;49.948;9.208;2023-08-31T15:30:29;18.80;99.90
18091;DHT22;9172;49.948;9.208;2023-08-31T15:33:01;18.80;99.90
18091;DHT22;9172;49.948;9.208;2023-08-31T15:35:30;18.80;99.90
18091;DHT22;9172;49.948;9.208;2023-08-31T15:40:35;19.00;99.90
18091;DHT22;9172;49.948;9.208;2023-08-31T15:43:04;19.00;99.90
18091;DHT22;9172;49.948;9.208;2023-08-31T15:48:09;19.00;99.90
18091;DHT22;9172;49.948;9.208;2023-08-31T15:50:39;18.90;99.90
18091;DHT22;9172;49.948;9.208;2023-08-31T15:53:07;18.90;99.90
18091;DHT22;9172;49.948;9.208;2023-08-31T15:58:12;18.80;99.90
18091;DHT22;9172;49.948;9.208;2023-08-31T16:00:41;18.70;99.90
18091;DHT22;9172;49.948;9.208;2023-08-31T16:05:48;18.60;99.90
18091;DHT22;9172;49.948;9.208;2023-08-31T16:08:17;18.70;99.90
18091;DHT22;9172;49.948;9.208;2023-08-31T16:10:48;18.60;99.90
18091;DHT22;9172;49.948;9.208;2023-08-31T16:13:18;18.60;99.90
18091;DHT22;9172;49.948;9.208;2023-08-31T16:15:47;18.50;99.90
18091;DHT22;9172;49.948;9.208;2023-08-31T16:18:17;18.50;99.90
18091;DHT22;9172;49.948;9.208;2023-08-31T16:20:45;18.50;99.90
18091;DHT22;9172;49.948;9.208;2023-08-31T16:23:15;18.50;99.90
18091;DHT22;9172;49.948;9.208;2023-08-31T16:25:44;18.40;99.90
18091;DHT22;9172;49.948;9.208;2023-08-31T16:28:12;18.30;99.90
18091;DHT22;9172;49.948;9.208;2023-08-31T16:33:17;18.20;99.90
18091;DHT22;9172;49.948;9.208;2023-08-31T16:35:46;18.10;99.90
18091;DHT22;9172;49.948;9.208;2023-08-31T16:38:14;18.00;99.90
18091;DHT22;9172;49.948;9.208;2023-08-31T16:40:45;17.90;99.90
18091;DHT22;9172;49.948;9.208;2023-08-31T16:43:15;17.80;99.90
18091;DHT22;9172;49.948;9.208;2023-08-31T16:45:44;17.80;99.90
18091;DHT22;9172;49.948;9.208;2023-08-31T16:48:13;17.80;99.90